Ana Sayfa
METAR-TAF:

METAR-TAF

Havaalanları :

Auckland Havalimanı

Auckland, Yeni Zelanda

Enlem: 37-01S, Boylam: 174-48E, yükseklik: 7 m

Güncel hava durumu gözlemi

Rapor saat 03:30 UTC de 41 dakika önce yapıldı.
Rüzgar güneybatıdan 11 kt
Sıcaklık 19°C
Nem 64%
Basınç 1023 hPa
Görüş mesafesi 10 km veya daha fazla

METAR: NZAA 230330Z AUTO 23011KT 9999 NCD 19/12 Q1023 NOSIG

Saat: 17:11 (04:11 UTC)

Tahmin

Rapor saat 23:01 UTC de 5 saat ve 10 dakika önce yapıldı.
Ayın 23'si saat 00 UTC'den ayın 24'si saat 00 UTC'ye kadar geçerli Tahmin
Rüzgar batı/güneybatıdan 10 kt
Görüş mesafesi 10 km veya daha fazla
2000 ft yükseklikte parçalı bulutlu
Ayın 23'si saat 0800 UTC'den
Rüzgar güneydan 5 kt
Görüş mesafesi 10 km veya daha fazla
2000 ft yükseklikte parçalı çok bulutlu
Olasılık 30%
ayın 23'si saat 12 UTC'den ayın 23'si saat 21 UTC'ye kadar
1000 ft yükseklikte parçalı çok bulutlu

TAF: NZAA 222301Z 2300/2400 24010KT 9999 SCT020 FM230800 18005KT 9999 BKN020 PROB30 2312/2321 BKN010

4.000'den fazla havaalanı için hava durumu gözlemleri ve tahminleri (METAR ve TAF raporları).

Kullanılabilir istasyonlar harita üzerinde sarı ve kırmızı noktalarla gösterilir.

İstasyonun adını görmek için fareyi noktanın üzerinde gezdirin.

Sonrasında hava gözlem ve tahminlerini görmek için tıklayın.

Haritayı değiştirmek için: yaklaştırmak için siyah artı işaretli yeşil düğmeye ve uzaklaştırmak için de eksi işaretli düğmeye hızla tıklayın; bitişik haritalar için yeşil okları kullanın.


METAR-TAF: